createdAt,value
2018-07-11T00:00:12.477Z,100452.46
2018-07-11T00:02:42.229Z,100443.25
2018-07-11T00:05:12.055Z,100440.50
2018-07-11T00:07:41.908Z,100440.80
2018-07-11T00:10:11.486Z,100440.94
2018-07-11T00:12:41.224Z,100431.53
2018-07-11T00:15:10.800Z,100437.22
2018-07-11T00:17:40.442Z,100433.16
2018-07-11T00:20:10.071Z,100431.73
2018-07-11T00:22:39.707Z,100435.30
2018-07-11T00:25:09.316Z,100433.45
2018-07-11T00:27:39.234Z,100434.55
2018-07-11T00:30:08.958Z,100431.06
2018-07-11T00:32:38.638Z,100437.83
2018-07-11T00:35:08.303Z,100427.88
2018-07-11T00:37:38.084Z,100438.27
2018-07-11T00:40:07.885Z,100435.30
2018-07-11T00:42:37.610Z,100440.42
2018-07-11T00:45:08.125Z,100438.64
2018-07-11T00:47:38.008Z,100440.65
2018-07-11T00:50:07.684Z,100440.50
2018-07-11T00:52:37.597Z,100443.38
2018-07-11T00:55:07.284Z,100432.92
2018-07-11T00:57:38.417Z,100436.34
2018-07-11T01:00:08.227Z,100440.27
2018-07-11T01:02:38.099Z,100431.34
2018-07-11T01:05:07.820Z,100431.20
2018-07-11T01:07:37.751Z,100438.78
2018-07-11T01:10:07.503Z,100437.30
2018-07-11T01:12:40.112Z,100436.41
2018-07-11T01:15:09.944Z,100446.57
2018-07-11T01:18:47.854Z,100442.94
2018-07-11T01:21:17.764Z,100446.42
2018-07-11T01:23:47.408Z,100446.14
2018-07-11T01:26:17.485Z,100437.45
2018-07-11T01:28:47.166Z,100439.69
2018-07-11T01:31:16.769Z,100437.39
2018-07-11T01:33:46.405Z,100437.39
2018-07-11T01:36:16.222Z,100426.77
2018-07-11T01:38:46.253Z,100421.42
2018-07-11T01:41:16.000Z,100422.46
2018-07-11T01:43:46.278Z,100421.04
2018-07-11T01:46:16.340Z,100417.70
2018-07-11T01:48:46.456Z,100421.17
2018-07-11T01:51:16.125Z,100419.77
2018-07-11T01:53:46.021Z,100419.31
2018-07-11T01:56:15.734Z,100419.09
2018-07-11T01:58:47.365Z,100413.08
2018-07-11T02:01:17.386Z,100410.70
2018-07-11T02:03:47.107Z,100409.44
2018-07-11T02:06:16.829Z,100414.40
2018-07-11T02:08:46.594Z,100410.23
2018-07-11T02:11:16.174Z,100401.55
2018-07-11T02:13:45.878Z,100401.55
2018-07-11T02:16:15.529Z,100404.77
2018-07-11T02:18:45.173Z,100413.33
2018-07-11T02:21:14.889Z,100412.59
2018-07-11T02:23:44.656Z,100406.28
2018-07-11T02:26:14.319Z,100406.37
2018-07-11T02:28:44.100Z,100412.13
2018-07-11T02:31:13.863Z,100408.04
2018-07-11T02:33:43.832Z,100411.13
2018-07-11T02:36:13.537Z,100411.66
2018-07-11T02:38:43.244Z,100414.34
2018-07-11T02:41:13.006Z,100401.30
2018-07-11T02:43:42.722Z,100404.69
2018-07-11T02:46:12.449Z,100409.56
2018-07-11T02:48:42.227Z,100397.80
2018-07-11T02:51:12.017Z,100403.03
2018-07-11T02:53:41.647Z,100402.61
2018-07-11T02:56:11.358Z,100404.30
2018-07-11T02:58:40.986Z,100405.86
2018-07-11T03:01:11.548Z,100411.13
2018-07-11T03:03:41.223Z,100406.91
2018-07-11T03:06:10.912Z,100411.33
2018-07-11T03:08:40.666Z,100417.18
2018-07-11T03:11:10.406Z,100416.98
2018-07-11T03:13:40.042Z,100413.18
2018-07-11T03:16:09.691Z,100415.09
2018-07-11T03:18:39.312Z,100417.70
2018-07-11T03:21:08.961Z,100410.64
2018-07-11T03:23:38.629Z,100412.76
2018-07-11T03:26:08.249Z,100403.94
2018-07-11T03:28:37.980Z,100416.47
2018-07-11T03:31:07.563Z,100418.45
2018-07-11T03:33:37.200Z,100416.42
2018-07-11T03:36:06.940Z,100418.34
2018-07-11T03:38:36.610Z,100422.91
2018-07-11T03:41:06.300Z,100420.98
2018-07-11T03:43:35.930Z,100420.23
2018-07-11T03:46:05.746Z,100420.53
2018-07-11T03:48:35.481Z,100421.22
2018-07-11T03:51:05.118Z,100412.50
2018-07-11T03:53:34.717Z,100413.77
2018-07-11T03:56:04.882Z,100415.59
2018-07-11T03:58:35.256Z,100411.59
2018-07-11T04:01:04.930Z,100404.69
2018-07-11T04:03:34.589Z,100414.28
2018-07-11T04:06:05.665Z,100412.79
2018-07-11T04:08:35.655Z,100412.63
2018-07-11T04:11:05.339Z,100409.92
2018-07-11T04:13:34.980Z,100410.37
2018-07-11T04:16:04.702Z,100416.25
2018-07-11T04:18:34.318Z,100416.02
2018-07-11T04:21:04.278Z,100419.46
2018-07-11T04:23:34.023Z,100415.45
2018-07-11T04:26:03.646Z,100425.67
2018-07-11T04:28:33.501Z,100420.43
2018-07-11T04:31:03.313Z,100418.71
2018-07-11T04:33:33.320Z,100421.83
2018-07-11T04:36:03.099Z,100421.11
2018-07-11T04:38:33.080Z,100421.61
2018-07-11T04:41:02.934Z,100430.43
2018-07-11T04:43:32.670Z,100437.77
2018-07-11T04:46:02.384Z,100444.45
2018-07-11T04:48:32.336Z,100443.69
2018-07-11T04:51:02.136Z,100452.91
2018-07-11T04:53:31.924Z,100447.78
2018-07-11T04:56:04.269Z,100451.79
2018-07-11T04:58:34.353Z,100443.73
2018-07-11T05:01:03.972Z,100442.48
2018-07-11T05:03:33.631Z,100434.28
2018-07-11T05:06:03.234Z,100443.72
2018-07-11T05:08:32.795Z,100441.35
2018-07-11T05:11:02.543Z,100440.31
2018-07-11T05:13:32.074Z,100439.25
2018-07-11T05:16:01.735Z,100444.74
2018-07-11T05:18:31.671Z,100442.42
2018-07-11T05:21:01.569Z,100442.12
2018-07-11T05:23:31.209Z,100446.05
2018-07-11T05:26:00.856Z,100457.48
2018-07-11T05:28:30.506Z,100462.54
2018-07-11T05:31:00.154Z,100467.89
2018-07-11T05:33:29.761Z,100465.94
2018-07-11T05:35:59.369Z,100471.72
2018-07-11T05:38:29.057Z,100470.73
2018-07-11T05:40:58.735Z,100474.31
2018-07-11T05:43:28.655Z,100473.50
2018-07-11T05:45:58.328Z,100479.90
2018-07-11T05:48:27.896Z,100479.66
2018-07-11T05:50:57.622Z,100470.82
2018-07-11T05:53:27.536Z,100481.25
2018-07-11T05:55:57.104Z,100477.81
2018-07-11T05:58:26.856Z,100481.54
2018-07-11T06:00:56.493Z,100484.58
2018-07-11T06:03:26.079Z,100479.97
2018-07-11T06:05:55.677Z,100479.68
2018-07-11T06:08:25.418Z,100475.97
2018-07-11T06:10:55.156Z,100472.88
2018-07-11T06:13:24.915Z,100468.90
2018-07-11T06:15:54.504Z,100470.56
2018-07-11T06:18:26.164Z,100471.28
2018-07-11T06:20:56.031Z,100473.67
2018-07-11T06:23:25.694Z,100477.37
2018-07-11T06:25:56.362Z,100476.84
2018-07-11T06:28:26.081Z,100473.74
2018-07-11T06:30:55.744Z,100473.81
2018-07-11T06:33:25.396Z,100471.81
2018-07-11T06:35:55.056Z,100475.73
2018-07-11T06:38:24.669Z,100469.95
2018-07-11T06:40:54.524Z,100470.81
2018-07-11T06:43:24.144Z,100464.48
2018-07-11T06:45:54.454Z,100468.73
2018-07-11T06:48:24.548Z,100463.80
2018-07-11T06:50:54.339Z,100465.98
2018-07-11T06:53:24.287Z,100474.48
2018-07-11T06:55:53.999Z,100468.07
2018-07-11T06:58:23.644Z,100467.13
2018-07-11T07:00:53.285Z,100470.87
2018-07-11T07:03:23.002Z,100472.81
2018-07-11T07:05:52.813Z,100470.73
2018-07-11T07:08:22.515Z,100473.75
2018-07-11T07:10:52.116Z,100473.49
2018-07-11T07:13:21.949Z,100474.93
2018-07-11T07:15:51.679Z,100473.16
2018-07-11T07:18:21.464Z,100469.78
2018-07-11T07:20:51.168Z,100471.50
2018-07-11T07:23:20.822Z,100472.16
2018-07-11T07:25:53.491Z,100471.14
2018-07-11T07:28:23.179Z,100467.41
2018-07-11T07:30:52.900Z,100470.20
2018-07-11T07:33:23.093Z,100464.73
2018-07-11T07:35:52.829Z,100463.69
2018-07-11T07:38:22.648Z,100461.95
2018-07-11T07:40:53.164Z,100458.95
2018-07-11T07:43:22.993Z,100455.70
2018-07-11T07:45:52.709Z,100452.86
2018-07-11T07:48:22.483Z,100457.20
2018-07-11T07:50:52.485Z,100454.31
2018-07-11T07:53:22.258Z,100447.84
2018-07-11T07:55:52.008Z,100447.69
2018-07-11T07:58:21.874Z,100442.84
2018-07-11T08:00:52.031Z,100449.55
2018-07-11T08:03:21.941Z,100444.98
2018-07-11T08:05:56.162Z,100445.70
2018-07-11T08:08:25.991Z,100443.70
2018-07-11T08:10:55.842Z,100444.55
2018-07-11T08:13:25.728Z,100439.08
2018-07-11T08:15:55.571Z,100447.45
2018-07-11T08:18:25.386Z,100437.86
2018-07-11T08:20:55.106Z,100441.59
2018-07-11T08:23:46.616Z,100444.41
2018-07-11T08:26:33.701Z,100440.30
2018-07-11T08:31:56.912Z,100439.69
2018-07-11T08:34:47.361Z,100431.80
2018-07-11T08:38:33.167Z,100431.00
2018-07-11T08:41:21.252Z,100426.86
2018-07-11T08:44:21.273Z,100432.69
2018-07-11T08:47:04.684Z,100425.73
2018-07-11T08:50:50.163Z,100429.86
2018-07-11T08:55:46.444Z,100423.86
2018-07-11T09:01:05.536Z,100426.23
2018-07-11T09:13:46.358Z,100418.25
2018-07-11T09:17:32.297Z,100418.05
2018-07-11T09:21:54.194Z,100416.21
2018-07-11T09:24:40.549Z,100414.48
2018-07-11T09:27:10.833Z,100415.80
2018-07-11T09:29:41.393Z,100413.42
2018-07-11T09:32:11.915Z,100414.41
2018-07-11T09:34:42.049Z,100408.92
2018-07-11T09:37:11.945Z,100409.52
2018-07-11T09:39:42.278Z,100409.05
2018-07-11T09:42:12.208Z,100404.77
2018-07-11T09:44:41.928Z,100406.06
2018-07-11T09:47:16.675Z,100405.83
2018-07-11T09:49:46.515Z,100398.93
2018-07-11T09:52:16.982Z,100397.73
2018-07-11T09:54:46.724Z,100388.86
2018-07-11T09:57:17.844Z,100387.45
2018-07-11T09:59:47.627Z,100389.25
2018-07-11T10:02:17.817Z,100384.95
2018-07-11T10:04:47.652Z,100383.72
2018-07-11T10:07:17.786Z,100379.95
2018-07-11T10:09:47.493Z,100375.75
2018-07-11T10:12:17.480Z,100381.52
2018-07-11T10:14:47.121Z,100385.59
2018-07-11T10:17:16.835Z,100392.31
2018-07-11T10:19:46.502Z,100397.31
2018-07-11T10:22:16.194Z,100400.81
2018-07-11T10:24:45.894Z,100393.66
2018-07-11T10:27:15.589Z,100380.73
2018-07-11T10:29:45.491Z,100374.64
2018-07-11T10:32:15.172Z,100376.08
2018-07-11T10:34:44.955Z,100376.44
2018-07-11T10:37:14.728Z,100374.27
2018-07-11T10:39:44.541Z,100380.98
2018-07-11T10:42:14.188Z,100364.00
2018-07-11T10:44:43.979Z,100360.52
2018-07-11T10:47:14.223Z,100361.67
2018-07-11T10:49:44.776Z,100366.87
2018-07-11T10:52:14.520Z,100348.55
2018-07-11T10:54:44.291Z,100350.45
2018-07-11T10:57:13.985Z,100356.13
2018-07-11T10:59:43.743Z,100353.84
2018-07-11T11:02:21.754Z,100346.86
2018-07-11T11:04:51.751Z,100354.81
2018-07-11T11:07:22.017Z,100343.56
2018-07-11T11:09:51.792Z,100329.28
2018-07-11T11:12:22.095Z,100337.71
2018-07-11T11:14:52.087Z,100338.70
2018-07-11T11:17:24.186Z,100329.33
2018-07-11T11:19:53.945Z,100325.77
2018-07-11T11:22:24.164Z,100331.91
2018-07-11T11:24:53.915Z,100325.59
2018-07-11T11:27:24.148Z,100325.13
2018-07-11T11:29:53.935Z,100324.87
2018-07-11T11:32:23.953Z,100328.02
2018-07-11T11:34:53.680Z,100331.86
2018-07-11T11:37:23.558Z,100327.52
2018-07-11T11:39:53.191Z,100327.70
2018-07-11T11:42:23.427Z,100330.14
2018-07-11T11:44:52.862Z,100325.17
2018-07-11T11:47:27.617Z,100332.57
2018-07-11T11:49:58.295Z,100331.49
2018-07-11T11:52:28.360Z,100324.73
2018-07-11T11:54:58.153Z,100323.89
2018-07-11T11:57:28.224Z,100328.23
2018-07-11T11:59:57.955Z,100325.92
2018-07-11T12:02:27.888Z,100336.23
2018-07-11T12:04:57.764Z,100331.06
2018-07-11T12:07:27.897Z,100336.58
2018-07-11T12:09:57.536Z,100340.56
2018-07-11T12:12:27.345Z,100335.92
2018-07-11T12:14:57.062Z,100332.06
2018-07-11T12:17:26.911Z,100330.75
2018-07-11T12:19:56.598Z,100343.47
2018-07-11T12:22:27.549Z,100347.80
2018-07-11T12:24:57.236Z,100349.55
2018-07-11T12:27:30.116Z,100342.22
2018-07-11T12:29:59.892Z,100339.73
2018-07-11T12:32:29.902Z,100344.34
2018-07-11T12:34:59.557Z,100332.00
2018-07-11T12:37:29.489Z,100332.67
2018-07-11T12:40:00.068Z,100329.04
2018-07-11T12:42:30.213Z,100324.38
2018-07-11T12:44:59.835Z,100318.92
2018-07-11T12:47:35.004Z,100320.82
2018-07-11T12:50:04.907Z,100325.60
2018-07-11T12:52:34.788Z,100323.53
2018-07-11T12:55:04.516Z,100327.22
2018-07-11T12:57:34.169Z,100325.90
2018-07-11T13:00:03.925Z,100325.37
2018-07-11T13:02:34.763Z,100324.71
2018-07-11T13:05:04.626Z,100323.97
2018-07-11T13:07:34.962Z,100321.64
2018-07-11T13:10:04.746Z,100327.64
2018-07-11T13:12:34.902Z,100314.27
2018-07-11T13:15:04.609Z,100317.63
2018-07-11T13:17:34.783Z,100319.30
2018-07-11T13:20:04.536Z,100322.47
2018-07-11T13:22:34.670Z,100318.49
2018-07-11T13:25:04.304Z,100309.44
2018-07-11T13:27:34.552Z,100309.94
2018-07-11T13:30:04.352Z,100315.12
2018-07-11T13:32:34.979Z,100309.02
2018-07-11T13:35:04.798Z,100312.39
2018-07-11T13:37:35.047Z,100308.13
2018-07-11T13:40:05.017Z,100305.48
2018-07-11T13:42:34.944Z,100303.19
2018-07-11T13:45:04.725Z,100295.27
2018-07-11T13:47:34.828Z,100290.54
2018-07-11T13:50:04.485Z,100300.41
2018-07-11T13:52:34.486Z,100292.75
2018-07-11T13:55:04.287Z,100295.08
2018-07-11T13:57:33.983Z,100288.36
2018-07-11T14:00:04.101Z,100291.63
2018-07-11T14:02:33.810Z,100285.08
2018-07-11T14:05:03.656Z,100284.73
2018-07-11T14:07:33.475Z,100284.09
2018-07-11T14:10:03.153Z,100283.66
2018-07-11T14:12:32.991Z,100283.53
2018-07-11T14:15:02.846Z,100278.16
2018-07-11T14:17:32.725Z,100276.78
2018-07-11T14:20:02.606Z,100277.46
2018-07-11T14:22:31.887Z,100284.69
2018-07-11T14:25:02.534Z,100279.47
2018-07-11T14:27:39.243Z,100278.92
2018-07-11T14:30:09.423Z,100281.51
2018-07-11T14:32:49.997Z,100283.78
2018-07-11T14:35:20.349Z,100279.34
2018-07-11T14:37:50.406Z,100278.53
2018-07-11T14:40:20.564Z,100284.87
2018-07-11T14:42:50.268Z,100281.23
2018-07-11T14:45:20.443Z,100289.92
2018-07-11T14:47:55.450Z,100285.55
2018-07-11T14:50:25.759Z,100285.31
2018-07-11T14:52:55.459Z,100278.13
2018-07-11T14:55:25.206Z,100281.91
2018-07-11T14:57:55.197Z,100285.34
2018-07-11T15:00:25.105Z,100285.38
2018-07-11T15:02:54.751Z,100282.73
2018-07-11T15:05:24.518Z,100278.47
2018-07-11T15:07:54.229Z,100279.78
2018-07-11T15:10:25.027Z,100269.84
2018-07-11T15:12:54.754Z,100272.55
2018-07-11T15:15:24.711Z,100271.14
2018-07-11T15:17:54.380Z,100269.37
2018-07-11T15:20:23.730Z,100271.81
2018-07-11T15:22:54.258Z,100273.39
2018-07-11T15:25:26.943Z,100271.27
2018-07-11T15:27:56.672Z,100267.58
2018-07-11T15:30:26.350Z,100257.86
2018-07-11T15:32:56.081Z,100264.74
2018-07-11T15:35:25.645Z,100261.33
2018-07-11T15:37:55.502Z,100264.81
2018-07-11T15:40:25.344Z,100268.53
2018-07-11T15:42:55.815Z,100260.42
2018-07-11T15:45:25.610Z,100265.80
2018-07-11T15:47:55.290Z,100262.89
2018-07-11T15:50:25.372Z,100265.60
2018-07-11T15:52:55.082Z,100260.52
2018-07-11T15:55:24.784Z,100257.55
2018-07-11T15:57:55.967Z,100254.89
2018-07-11T16:00:38.668Z,100256.98
2018-07-11T16:03:08.486Z,100257.80
2018-07-11T16:05:44.211Z,100258.59
2018-07-11T16:08:20.308Z,100267.75
2018-07-11T16:10:54.722Z,100262.69
2018-07-11T16:13:24.471Z,100258.63
2018-07-11T16:15:54.423Z,100253.45
2018-07-11T16:18:24.549Z,100252.98
2018-07-11T16:20:53.990Z,100259.97
2018-07-11T16:23:24.261Z,100255.64
2018-07-11T16:25:54.424Z,100252.16
2018-07-11T16:28:24.300Z,100252.97
2018-07-11T16:30:54.118Z,100254.17
2018-07-11T16:33:24.048Z,100260.61
2018-07-11T16:35:53.865Z,100259.02
2018-07-11T16:38:23.736Z,100267.09
2018-07-11T16:40:54.822Z,100261.96
2018-07-11T16:43:24.628Z,100270.27
2018-07-11T16:45:54.518Z,100264.42
2018-07-11T16:48:24.345Z,100275.81
2018-07-11T16:50:54.062Z,100265.52
2018-07-11T16:53:24.826Z,100275.00
2018-07-11T16:55:54.806Z,100277.48
2018-07-11T16:58:31.151Z,100280.95
2018-07-11T17:01:01.921Z,100277.42
2018-07-11T17:03:34.911Z,100280.33
2018-07-11T17:06:08.766Z,100281.64
2018-07-11T17:08:48.155Z,100283.30
2018-07-11T17:11:25.589Z,100282.24
2018-07-11T17:14:02.277Z,100284.13
2018-07-11T17:16:59.911Z,100283.83
2018-07-11T17:19:44.899Z,100283.83
2018-07-11T17:22:15.102Z,100289.25
2018-07-11T17:24:48.499Z,100288.73
2018-07-11T17:27:22.271Z,100290.17
2018-07-11T17:29:53.998Z,100287.09
2018-07-11T17:32:23.831Z,100296.06
2018-07-11T17:34:54.239Z,100293.91
2018-07-11T17:37:32.783Z,100296.63
2018-07-11T17:40:10.804Z,100294.09
2018-07-11T17:42:44.446Z,100306.03
2018-07-11T17:45:17.033Z,100303.88
2018-07-11T17:50:05.620Z,100297.63
2018-07-11T17:53:04.735Z,100315.33
2018-07-11T17:55:35.965Z,100324.84
2018-07-11T17:58:08.518Z,100332.25
2018-07-11T18:00:50.956Z,100328.28
2018-07-11T18:03:43.518Z,100332.11
2018-07-11T18:07:26.038Z,100335.02
2018-07-11T18:10:06.977Z,100340.87
2018-07-11T18:12:50.783Z,100346.67
2018-07-11T18:15:46.095Z,100343.09
2018-07-11T18:18:31.668Z,100343.92
2018-07-11T18:23:39.084Z,100346.38
2018-07-11T18:26:20.148Z,100344.58
2018-07-11T18:29:08.224Z,100350.09
2018-07-11T18:31:51.883Z,100344.11
2018-07-11T18:36:43.968Z,100343.50
2018-07-11T18:39:26.254Z,100350.69
2018-07-11T18:42:40.610Z,100358.00
2018-07-11T18:47:33.598Z,100357.14
2018-07-11T18:50:20.250Z,100362.66
2018-07-11T18:53:01.979Z,100372.01
2018-07-11T18:55:44.338Z,100370.79
2018-07-11T18:58:53.980Z,100360.89
2018-07-11T19:01:37.205Z,100356.59
2018-07-11T19:04:22.043Z,100359.61
2018-07-11T19:07:14.750Z,100360.50
2018-07-11T19:09:53.232Z,100363.80
2018-07-11T19:12:31.419Z,100361.17
2018-07-11T19:15:16.780Z,100364.66
2018-07-11T19:18:20.073Z,100360.23
2018-07-11T19:21:10.379Z,100366.94
2018-07-11T19:23:54.496Z,100363.59
2018-07-11T19:26:42.212Z,100366.53
2018-07-11T19:29:57.161Z,100377.34
2018-07-11T19:32:46.272Z,100376.34
2018-07-11T19:36:31.721Z,100366.89
2018-07-11T19:39:10.119Z,100377.27
2018-07-11T19:41:51.600Z,100378.16
2018-07-11T19:44:41.450Z,100373.58
2018-07-11T19:47:31.004Z,100382.63
2018-07-11T19:51:31.632Z,100382.72
2018-07-11T19:54:11.852Z,100384.48
2018-07-11T19:56:46.488Z,100384.59
2018-07-11T19:59:16.690Z,100387.19
2018-07-11T20:01:48.029Z,100391.30
2018-07-11T20:04:18.011Z,100381.09
2018-07-11T20:06:47.784Z,100389.87
2018-07-11T20:09:24.201Z,100391.69
2018-07-11T20:11:53.963Z,100392.08
2018-07-11T20:14:23.733Z,100392.56
2018-07-11T20:16:53.718Z,100388.00
2018-07-11T20:19:23.496Z,100401.75
2018-07-11T20:21:53.706Z,100393.17
2018-07-11T20:24:30.169Z,100393.65
2018-07-11T20:26:59.831Z,100391.69
2018-07-11T20:29:30.024Z,100394.71
2018-07-11T20:31:59.804Z,100398.66
2018-07-11T20:34:29.505Z,100397.31
2018-07-11T20:36:59.130Z,100396.78
2018-07-11T20:39:29.088Z,100402.20
2018-07-11T20:41:59.212Z,100406.23
2018-07-11T20:44:29.097Z,100410.28
2018-07-11T20:46:58.897Z,100416.72
2018-07-11T20:49:33.600Z,100419.38
2018-07-11T20:52:04.861Z,100420.09
2018-07-11T20:54:34.787Z,100426.08
2018-07-11T20:57:04.541Z,100427.45
2018-07-11T20:59:51.096Z,100424.34
2018-07-11T21:02:37.537Z,100430.24
2018-07-11T21:07:43.020Z,100432.03
2018-07-11T21:10:46.935Z,100431.31
2018-07-11T21:15:54.830Z,100429.80
2018-07-11T21:19:10.114Z,100438.22
2018-07-11T21:21:42.189Z,100441.65
2018-07-11T21:24:12.723Z,100440.34
2018-07-11T21:26:42.406Z,100435.22
2018-07-11T21:29:12.166Z,100436.70
2018-07-11T21:31:42.076Z,100436.84
2018-07-11T21:34:11.902Z,100439.09
2018-07-11T21:36:41.740Z,100441.39
2018-07-11T21:39:11.575Z,100442.45
2018-07-11T21:41:41.248Z,100441.42
2018-07-11T21:44:10.973Z,100443.17
2018-07-11T21:46:40.703Z,100438.03
2018-07-11T21:49:21.845Z,100433.54
2018-07-11T21:51:52.465Z,100434.91
2018-07-11T21:54:22.473Z,100431.23
2018-07-11T21:56:52.771Z,100428.80
2018-07-11T21:59:22.734Z,100428.17
2018-07-11T22:01:53.069Z,100423.15
2018-07-11T22:04:23.387Z,100429.17
2018-07-11T22:06:53.167Z,100429.36
2018-07-11T22:09:22.977Z,100432.02
2018-07-11T22:11:52.746Z,100433.07
2018-07-11T22:14:22.453Z,100438.03
2018-07-11T22:16:52.216Z,100442.98
2018-07-11T22:19:22.041Z,100445.98
2018-07-11T22:21:50.001Z,100446.52
2018-07-11T22:24:17.833Z,100445.98
2018-07-11T22:26:45.700Z,100444.02
2018-07-11T22:29:13.575Z,100444.11
2018-07-11T22:31:41.426Z,100448.04
2018-07-11T22:34:09.279Z,100451.50
2018-07-11T22:36:37.152Z,100458.05
2018-07-11T22:39:05.007Z,100462.08
2018-07-11T22:41:32.847Z,100461.08
2018-07-11T22:44:00.699Z,100461.89
2018-07-11T22:46:29.631Z,100452.22
2018-07-11T22:48:57.540Z,100453.91
2018-07-11T22:51:25.389Z,100453.69
2018-07-11T22:53:53.208Z,100453.91
2018-07-11T22:56:21.073Z,100458.68
2018-07-11T22:58:48.927Z,100460.83
2018-07-11T23:01:16.813Z,100462.27
2018-07-11T23:03:44.652Z,100460.37
2018-07-11T23:06:12.480Z,100461.45
2018-07-11T23:08:40.283Z,100457.34
2018-07-11T23:11:08.089Z,100464.42
2018-07-11T23:13:35.967Z,100467.07
2018-07-11T23:16:03.812Z,100470.66
2018-07-11T23:18:31.797Z,100469.38
2018-07-11T23:20:59.635Z,100472.28
2018-07-11T23:23:27.467Z,100471.53
2018-07-11T23:25:55.284Z,100474.43
2018-07-11T23:28:23.196Z,100473.34
2018-07-11T23:30:51.059Z,100472.25
2018-07-11T23:33:18.910Z,100476.55
2018-07-11T23:35:46.802Z,100467.73
2018-07-11T23:38:14.626Z,100469.66
2018-07-11T23:40:42.508Z,100464.33
2018-07-11T23:43:10.371Z,100472.75
2018-07-11T23:45:38.197Z,100471.75
2018-07-11T23:48:06.060Z,100461.89
2018-07-11T23:50:33.989Z,100459.92
2018-07-11T23:53:01.798Z,100457.41
2018-07-11T23:55:29.650Z,100455.03
2018-07-11T23:57:57.536Z,100455.81
